Dong Fang Chun — BRZL — position and weather

sailwx.info

Track history (hours):
 
Tides and Currents Weather Stations Pressure Air Temp Water Temp Dewpoint Dewpoint Depression Visibility Wind Speed Wind Dir Waves Ship Positions

Dong Fang Chun

Last reported at 2015-May-25 04:30 UTC. Time now 2015-May-25 05:23 UTC.
Position N 22°15' E 113°38'.

Length 23 m; draft 1.4 m.

Type: High speed craft. MMSI: 412461320.

Date/timePositionNaut miles runAvg speedWind from/ knotsBaromVisibWave heightAir tempDewpointWater temp
2015-May-25 04:30N 22°15' E 113°38'1111.3
2015-May-25 03:31N 22°21' E 113°48'6 5.9
2015-May-25 02:32N 22°25' E 113°52'1913.1
2015-May-25 01:07N 22°14' E 113°36'2022.0
2015-May-25 00:13N 22°26' E 113°53'3 4.5
2015-May-24 23:33N 22°29' E 113°55'0 0.0
2015-May-24 10:22N 22°29' E 113°55'0 0.0
2015-May-24 09:33N 22°29' E 113°55'0 0.0
2015-May-24 08:33N 22°29' E 113°55'0 0.0
2015-May-24 07:33N 22°29' E 113°55'0 0.0
2015-May-24 06:33N 22°29' E 113°55'0 0.0
2015-May-24 05:33N 22°29' E 113°55'0 0.0
2015-May-24 04:34N 22°29' E 113°55'0 0.0
2015-May-24 03:33N 22°29' E 113°55'0 0.0
2015-May-24 02:33N 22°29' E 113°55'3 0.2
2015-May-23 13:33N 22°26' E 113°54'21 9.4
2015-May-23 11:22N 22°14' E 113°35'2021.9
2015-May-23 10:27N 22°26' E 113°53'18 6.1
2015-May-23 07:31N 22°16' E 113°37'2121.6
2015-May-23 06:33N 22°28' E 113°55'2015.4
2015-May-23 05:16N 22°16' E 113°38'1 1.4
2015-May-23 04:31N 22°16' E 113°37'2121.5
2015-May-23 03:33N 22°28' E 113°55'1915.3
2015-May-23 02:18N 22°16' E 113°39'2 2.8
2015-May-23 01:32N 22°15' E 113°37'2121.9
2015-May-23 00:33N 22°29' E 113°55'0 0.2
2015-May-22 23:33N 22°29' E 113°55'0 0.0
2015-May-22 13:23N 22°29' E 113°55'1820.0
2015-May-22 12:29N 22°17' E 113°40'4 4.1
2015-May-22 11:33N 22°15' E 113°36'2222.0
2015-May-22 10:33N 22°29' E 113°55'0 0.0
2015-May-22 09:23N 22°29' E 113°55'0 0.0
2015-May-22 08:33N 22°29' E 113°55'0 0.0
2015-May-22 07:33N 22°29' E 113°55'0 0.0
2015-May-22 06:33N 22°29' E 113°55'0 0.0
2015-May-22 05:33N 22°29' E 113°55'0 0.0
2015-May-22 04:33N 22°29' E 113°55'0 0.0
2015-May-22 03:32N 22°29' E 113°55'0 0.0
2015-May-22 02:33N 22°29' E 113°55'0 0.0
2015-May-22 01:33N 22°29' E 113°55'5 0.4
2015-May-21 13:31N 22°25' E 113°52'1914.8
2015-May-21 12:14N 22°14' E 113°35'2022.5
2015-May-21 11:21N 22°25' E 113°53'20 6.1
2015-May-21 08:07N 22°14' E 113°35'2021.8
2015-May-21 07:12N 22°26' E 113°53'2010.0
2015-May-21 05:12N 22°14' E 113°35'2020.1
2015-May-21 04:11N 22°26' E 113°53'2012.4
2015-May-21 02:33N 22°14' E 113°35'2115.2
2015-May-21 01:11N 22°26' E 113°54'3 4.0
2015-May-21 00:33N 22°29' E 113°55'22 1.4
2015-May-20 09:33N 22°15' E 113°36'2221.8
2015-May-20 08:33N 22°28' E 113°55'2015.6
2015-May-20 07:17N 22°16' E 113°38'10 9.3
2015-May-20 06:10N 22°21' E 113°48'1015.9
2015-May-20 05:33N 22°29' E 113°55'2321.2
2015-May-20 04:28N 22°14' E 113°35'2016.0
2015-May-20 03:12N 22°26' E 113°53'1 1.0
2015-May-20 02:33N 22°26' E 113°53'2116.3
2015-May-20 01:18N 22°14' E 113°35'2019.1
2015-May-20 00:16N 22°26' E 113°53'3 4.9
2015-May-19 23:34N 22°29' E 113°55'3 0.2
2015-May-19 11:33N 22°26' E 113°53'2010.0
2015-May-19 09:33N 22°14' E 113°36'2222.4
2015-May-19 08:34N 22°28' E 113°55'2015.5
2015-May-19 07:16N 22°16' E 113°38'10 8.9
2015-May-19 06:07N 22°21' E 113°48'1017.6
2015-May-19 05:33N 22°29' E 113°55'2319.7
2015-May-19 04:24N 22°14' E 113°36'1314.5
2015-May-19 03:32N 22°21' E 113°47'8 8.3
2015-May-19 02:33N 22°27' E 113°54'2116.4
2015-May-19 01:16N 22°14' E 113°35'2019.6
2015-May-19 00:14N 22°26' E 113°53'3 4.5
2015-May-18 23:33N 22°29' E 113°55'0 0.0
2015-May-18 13:23N 22°29' E 113°55'1920.2
2015-May-18 12:26N 22°16' E 113°39'1712.2
2015-May-18 11:03N 22°26' E 113°53'0 0.6
2015-May-18 10:33N 22°26' E 113°53'20 8.3
2015-May-18 08:09N 22°14' E 113°35'1321.2
2015-May-18 07:31N 22°22' E 113°47'6 6.0
2015-May-18 06:32N 22°25' E 113°53'1 0.4
2015-May-18 04:13N 22°26' E 113°53'0 0.1
2015-May-18 03:33N 22°26' E 113°53'2015.5
2015-May-18 02:16N 22°14' E 113°35'2020.1
2015-May-18 01:15N 22°26' E 113°53'3 4.3
2015-May-18 00:33N 22°29' E 113°55'0 0.0
2015-May-17 23:33N 22°29' E 113°55'0 0.0
2015-May-17 11:33N 22°29' E 113°55'2015.5
2015-May-17 10:16N 22°16' E 113°38'3 2.8
2015-May-17 09:12N 22°15' E 113°35'2020.2
2015-May-17 08:14N 22°25' E 113°53'4 5.3
2015-May-17 07:33N 22°29' E 113°55'0 0.0
2015-May-17 06:33N 22°29' E 113°55'2 2.0
2015-May-17 05:33N 22°27' E 113°54'2121.0
2015-May-17 04:33N 22°14' E 113°36'2015.2
2015-May-17 03:16N 22°26' E 113°53'4 5.0
2015-May-17 02:33N 22°29' E 113°55'0 0.0
2015-May-17 01:33N 22°29' E 113°55'0 0.0
2015-May-17 00:33N 22°29' E 113°55'0 0.0
2015-May-16 23:34N 22°29' E 113°55'0 0.0
2015-May-16 08:26N 22°29' E 113°55'0 0.0
2015-May-16 07:33N 22°29' E 113°55'0 0.0
2015-May-16 06:34N 22°29' E 113°55'0 0.0
2015-May-16 05:33N 22°29' E 113°55'0 0.0
2015-May-16 04:33N 22°29' E 113°55'2018.0
2015-May-16 03:27N 22°16' E 113°38'1010.1
2015-May-16 02:27N 22°21' E 113°47'1011.1
2015-May-16 01:33N 22°29' E 113°55'0 0.0
2015-May-16 00:33N 22°29' E 113°55'0 0.0
2015-May-15 23:33N 22°29' E 113°55'0 0.0
2015-May-15 14:31N 22°29' E 113°55'2019.9
2015-May-15 13:31N 22°16' E 113°38'1110.4
2015-May-15 12:29N 22°22' E 113°48'9 9.9
2015-May-15 11:33N 22°29' E 113°55'2015.3
2015-May-15 10:17N 22°16' E 113°38'8 6.8
2015-May-15 09:09N 22°20' E 113°45'1220.0
2015-May-15 08:33N 22°29' E 113°55'2015.2
2015-May-15 07:16N 22°16' E 113°39'2011.4
2015-May-15 05:33N 22°29' E 113°55'2019.7
2015-May-15 04:33N 22°16' E 113°38'  
Track history (hours):
 
Tides and Currents Weather Stations Pressure Air Temp Water Temp Dewpoint Dewpoint Depression Visibility Wind Speed Wind Dir Waves Ship Positions

Dong Fang Chun

Last reported at 2015-May-25 04:30 UTC. Time now 2015-May-25 05:23 UTC.
Position N 22°15' E 113°38'.

Length 23 m; draft 1.4 m.

Type: High speed craft. MMSI: 412461320.

Date/timePositionNaut miles runAvg speedWind from/ knotsBaromVisibWave heightAir tempDewpointWater temp
2015-May-25 04:30N 22°15' E 113°38'1111.3
2015-May-25 03:31N 22°21' E 113°48'6 5.9
2015-May-25 02:32N 22°25' E 113°52'1913.1
2015-May-25 01:07N 22°14' E 113°36'2022.0
2015-May-25 00:13N 22°26' E 113°53'3 4.5
2015-May-24 23:33N 22°29' E 113°55'0 0.0
2015-May-24 10:22N 22°29' E 113°55'0 0.0
2015-May-24 09:33N 22°29' E 113°55'0 0.0
2015-May-24 08:33N 22°29' E 113°55'0 0.0
2015-May-24 07:33N 22°29' E 113°55'0 0.0
2015-May-24 06:33N 22°29' E 113°55'0 0.0
2015-May-24 05:33N 22°29' E 113°55'0 0.0
2015-May-24 04:34N 22°29' E 113°55'0 0.0
2015-May-24 03:33N 22°29' E 113°55'0 0.0
2015-May-24 02:33N 22°29' E 113°55'3 0.2
2015-May-23 13:33N 22°26' E 113°54'21 9.4
2015-May-23 11:22N 22°14' E 113°35'2021.9
2015-May-23 10:27N 22°26' E 113°53'18 6.1
2015-May-23 07:31N 22°16' E 113°37'2121.6
2015-May-23 06:33N 22°28' E 113°55'2015.4
2015-May-23 05:16N 22°16' E 113°38'1 1.4
2015-May-23 04:31N 22°16' E 113°37'2121.5
2015-May-23 03:33N 22°28' E 113°55'1915.3
2015-May-23 02:18N 22°16' E 113°39'2 2.8
2015-May-23 01:32N 22°15' E 113°37'2121.9
2015-May-23 00:33N 22°29' E 113°55'0 0.2
2015-May-22 23:33N 22°29' E 113°55'0 0.0
2015-May-22 13:23N 22°29' E 113°55'1820.0
2015-May-22 12:29N 22°17' E 113°40'4 4.1
2015-May-22 11:33N 22°15' E 113°36'2222.0
2015-May-22 10:33N 22°29' E 113°55'0 0.0
2015-May-22 09:23N 22°29' E 113°55'0 0.0
2015-May-22 08:33N 22°29' E 113°55'0 0.0
2015-May-22 07:33N 22°29' E 113°55'0 0.0
2015-May-22 06:33N 22°29' E 113°55'0 0.0
2015-May-22 05:33N 22°29' E 113°55'0 0.0
2015-May-22 04:33N 22°29' E 113°55'0 0.0
2015-May-22 03:32N 22°29' E 113°55'0 0.0
2015-May-22 02:33N 22°29' E 113°55'0 0.0
2015-May-22 01:33N 22°29' E 113°55'5 0.4
2015-May-21 13:31N 22°25' E 113°52'1914.8
2015-May-21 12:14N 22°14' E 113°35'2022.5
2015-May-21 11:21N 22°25' E 113°53'20 6.1
2015-May-21 08:07N 22°14' E 113°35'2021.8
2015-May-21 07:12N 22°26' E 113°53'2010.0
2015-May-21 05:12N 22°14' E 113°35'2020.1
2015-May-21 04:11N 22°26' E 113°53'2012.4
2015-May-21 02:33N 22°14' E 113°35'2115.2
2015-May-21 01:11N 22°26' E 113°54'3 4.0
2015-May-21 00:33N 22°29' E 113°55'22 1.4
2015-May-20 09:33N 22°15' E 113°36'2221.8
2015-May-20 08:33N 22°28' E 113°55'2015.6
2015-May-20 07:17N 22°16' E 113°38'10 9.3
2015-May-20 06:10N 22°21' E 113°48'1015.9
2015-May-20 05:33N 22°29' E 113°55'2321.2
2015-May-20 04:28N 22°14' E 113°35'2016.0
2015-May-20 03:12N 22°26' E 113°53'1 1.0
2015-May-20 02:33N 22°26' E 113°53'2116.3
2015-May-20 01:18N 22°14' E 113°35'2019.1
2015-May-20 00:16N 22°26' E 113°53'3 4.9
2015-May-19 23:34N 22°29' E 113°55'3 0.2
2015-May-19 11:33N 22°26' E 113°53'2010.0
2015-May-19 09:33N 22°14' E 113°36'2222.4
2015-May-19 08:34N 22°28' E 113°55'2015.5
2015-May-19 07:16N 22°16' E 113°38'10 8.9
2015-May-19 06:07N 22°21' E 113°48'1017.6
2015-May-19 05:33N 22°29' E 113°55'2319.7
2015-May-19 04:24N 22°14' E 113°36'1314.5
2015-May-19 03:32N 22°21' E 113°47'8 8.3
2015-May-19 02:33N 22°27' E 113°54'2116.4
2015-May-19 01:16N 22°14' E 113°35'2019.6
2015-May-19 00:14N 22°26' E 113°53'3 4.5
2015-May-18 23:33N 22°29' E 113°55'0 0.0
2015-May-18 13:23N 22°29' E 113°55'1920.2
2015-May-18 12:26N 22°16' E 113°39'1712.2
2015-May-18 11:03N 22°26' E 113°53'0 0.6
2015-May-18 10:33N 22°26' E 113°53'20 8.3
2015-May-18 08:09N 22°14' E 113°35'1321.2
2015-May-18 07:31N 22°22' E 113°47'6 6.0
2015-May-18 06:32N 22°25' E 113°53'1 0.4
2015-May-18 04:13N 22°26' E 113°53'0 0.1
2015-May-18 03:33N 22°26' E 113°53'2015.5
2015-May-18 02:16N 22°14' E 113°35'2020.1
2015-May-18 01:15N 22°26' E 113°53'3 4.3
2015-May-18 00:33N 22°29' E 113°55'0 0.0
2015-May-17 23:33N 22°29' E 113°55'0 0.0
2015-May-17 11:33N 22°29' E 113°55'2015.5
2015-May-17 10:16N 22°16' E 113°38'3 2.8
2015-May-17 09:12N 22°15' E 113°35'2020.2
2015-May-17 08:14N 22°25' E 113°53'4 5.3
2015-May-17 07:33N 22°29' E 113°55'0 0.0
2015-May-17 06:33N 22°29' E 113°55'2 2.0
2015-May-17 05:33N 22°27' E 113°54'2121.0
2015-May-17 04:33N 22°14' E 113°36'2015.2
2015-May-17 03:16N 22°26' E 113°53'4 5.0
2015-May-17 02:33N 22°29' E 113°55'0 0.0
2015-May-17 01:33N 22°29' E 113°55'0 0.0
2015-May-17 00:33N 22°29' E 113°55'0 0.0
2015-May-16 23:34N 22°29' E 113°55'0 0.0
2015-May-16 08:26N 22°29' E 113°55'0 0.0
2015-May-16 07:33N 22°29' E 113°55'0 0.0
2015-May-16 06:34N 22°29' E 113°55'0 0.0
2015-May-16 05:33N 22°29' E 113°55'0 0.0
2015-May-16 04:33N 22°29' E 113°55'2018.0
2015-May-16 03:27N 22°16' E 113°38'1010.1
2015-May-16 02:27N 22°21' E 113°47'1011.1
2015-May-16 01:33N 22°29' E 113°55'0 0.0
2015-May-16 00:33N 22°29' E 113°55'0 0.0
2015-May-15 23:33N 22°29' E 113°55'0 0.0
2015-May-15 14:31N 22°29' E 113°55'2019.9
2015-May-15 13:31N 22°16' E 113°38'1110.4
2015-May-15 12:29N 22°22' E 113°48'9 9.9
2015-May-15 11:33N 22°29' E 113°55'2015.3
2015-May-15 10:17N 22°16' E 113°38'8 6.8
2015-May-15 09:09N 22°20' E 113°45'1220.0
2015-May-15 08:33N 22°29' E 113°55'2015.2
2015-May-15 07:16N 22°16' E 113°39'2011.4
2015-May-15 05:33N 22°29' E 113°55'2019.7
2015-May-15 04:33N 22°16' E 113°38'  

Dump ship's entire track history